Weather History for Escanaba, MI

Change the Weather History Date:

Wednesday, September 14, 2011

  Actual Average Record
Temperature  
Mean Temperature 50 °F -  
Max Temperature 55 °F 65 °F 75 °F (2004)
Min Temperature 44 °F 49 °F 33 °F (2001)
Degree Days  
Heating Degree Days 16    
Moisture  
Dew Point 34 °F    
Average Humidity 55    
Maximum Humidity 82    
Minimum Humidity 38    
Precipitation  
Precipitation 0.00 in - - ()
Sea Level Pressure  
Sea Level Pressure 30.02 in    
Wind  
Wind Speed 10 mph (NW)    
Max Wind Speed 17 mph    
Max Gust Speed 25 mph    
Visibility 10 miles    
Events      
Averages and records for this station are not official NWS values.
T = Trace of Precipitation, MM = Missing Value Source: NWS Daily Summary

Daily Weather History Graph

Daily Weather History Graph

Search for Another Location

Airport:

Trip Planner

Search our weather history database for the weather conditions in past years. The results will help you decide how hot, cold, wet, or windy it might be!

Date:

Astronomy

Sep. 14, 2011 Rise Set
Actual Time 7:25 AM EDT 8:02 PM EDT
Civil Twilight 6:55 AM EDT 8:31 PM EDT
Nautical Twilight 6:19 AM EDT 9:07 PM EDT
Astronomical Twilight 5:42 AM EDT 9:44 PM EDT
Moon 8:34 PM EDT (9/14) 9:46 AM EDT (9/14)
Length of Visible Light 13h 36m
Length of Day
12h 36m
Waning Gibbous, 95% of the Moon is Illuminated
Sep 14
Waning Gibbous
Sep 20
Last Quarter
Sep 27
New
Oct 3
First Quarter
Oct 11
Full

Hourly Weather History & Observations

Time (EDT) Temp. Windchill Dew Point Humidity Pressure Visibility Wind Dir Wind Speed Gust Speed Precip Events Conditions
12:15 AM 53.6 °F - 39.2 °F 58% 29.88 in 10.0 mi WSW 9.2 mph - N/A   Mostly Cloudy
12:35 AM 55.4 °F - 39.2 °F 54% 29.88 in 10.0 mi West 9.2 mph - N/A   Mostly Cloudy
12:55 AM 53.6 °F - 41.0 °F 62% 29.89 in 10.0 mi WNW 9.2 mph - N/A   Overcast
1:15 AM 53.6 °F - 41.0 °F 62% 29.89 in 10.0 mi WNW 6.9 mph - N/A   Overcast
1:35 AM 53.6 °F - 41.0 °F 62% 29.90 in 10.0 mi WNW 8.1 mph - N/A   Overcast
2:15 AM 53.6 °F - 42.8 °F 67% 29.89 in 10.0 mi WNW 9.2 mph - N/A   Overcast
2:35 AM 53.6 °F - 42.8 °F 67% 29.89 in 10.0 mi WNW 9.2 mph - N/A   Overcast
2:55 AM 53.6 °F - 42.8 °F 67% 29.89 in 10.0 mi WNW 9.2 mph - N/A   Overcast
3:15 AM 53.6 °F - 42.8 °F 67% 29.89 in 10.0 mi WNW 9.2 mph - N/A   Overcast
3:35 AM 53.6 °F - 42.8 °F 67% 29.89 in 10.0 mi WNW 8.1 mph - N/A   Overcast
3:55 AM 51.8 °F - 42.8 °F 71% 29.89 in 10.0 mi WNW 9.2 mph - N/A   Mostly Cloudy
4:15 AM 51.8 °F - 42.8 °F 71% 29.90 in 10.0 mi West 6.9 mph - N/A   Partly Cloudy
4:35 AM 48.2 °F - 42.8 °F 82% 29.91 in 10.0 mi WNW 6.9 mph - N/A   Clear
4:55 AM 48.2 °F - 42.8 °F 82% 29.91 in 10.0 mi West 4.6 mph - N/A   Clear
5:15 AM 48.2 °F - 42.8 °F 82% 29.92 in 10.0 mi West 5.8 mph - N/A   Clear
5:55 AM 50.0 °F - 41.0 °F 71% 29.93 in 10.0 mi NW 8.1 mph - N/A   Mostly Cloudy
6:15 AM 50.0 °F - 37.4 °F 62% 29.93 in 10.0 mi WNW 13.8 mph 19.6 mph N/A   Partly Cloudy
6:35 AM 48.2 °F - 33.8 °F 58% 29.95 in 10.0 mi NW 13.8 mph 18.4 mph N/A   Clear
6:55 AM 46.4 °F 41.1 °F 33.8 °F 62% 29.96 in 10.0 mi WNW 11.5 mph 17.3 mph N/A   Clear
7:15 AM 46.4 °F 41.9 °F 33.8 °F 62% 29.97 in 10.0 mi WNW 9.2 mph 18.4 mph N/A   Clear
7:35 AM 46.4 °F 41.1 °F 33.8 °F 62% 29.98 in 10.0 mi WNW 11.5 mph - N/A   Clear
7:55 AM 44.6 °F 39.7 °F 33.8 °F 66% 30.00 in 10.0 mi NW 9.2 mph - N/A   Clear
8:15 AM 46.4 °F 41.9 °F 33.8 °F 62% 30.02 in 10.0 mi WNW 9.2 mph 16.1 mph N/A   Clear
8:35 AM 44.6 °F 39.7 °F 33.8 °F 66% 30.04 in 10.0 mi WNW 9.2 mph - N/A   Clear
8:55 AM 46.4 °F 41.5 °F 33.8 °F 62% 30.04 in 10.0 mi WNW 10.4 mph - N/A   Clear
9:15 AM 46.4 °F 41.1 °F 33.8 °F 62% 30.04 in 10.0 mi WNW 11.5 mph - N/A   Clear
9:35 AM 46.4 °F 40.7 °F 33.8 °F 62% 30.05 in 10.0 mi WNW 12.7 mph 16.1 mph N/A   Clear
9:55 AM 48.2 °F - 32.0 °F 54% 30.05 in 10.0 mi NW 16.1 mph 20.7 mph N/A   Clear
10:15 AM 48.2 °F - 33.8 °F 58% 30.06 in 10.0 mi NW 13.8 mph 18.4 mph N/A   Partly Cloudy
10:35 AM 48.2 °F - 30.2 °F 50% 30.07 in 10.0 mi NW 11.5 mph 23.0 mph N/A   Mostly Cloudy
10:55 AM 48.2 °F - 30.2 °F 50% 30.07 in 10.0 mi NW 11.5 mph 23.0 mph N/A   Partly Cloudy
11:15 AM 48.2 °F - 30.2 °F 50% 30.08 in 10.0 mi NW 13.8 mph 25.3 mph N/A   Scattered Clouds
11:35 AM 48.2 °F - 30.2 °F 50% 30.08 in 10.0 mi NNW 16.1 mph 23.0 mph N/A   Mostly Cloudy
11:55 AM 51.8 °F - 28.4 °F 41% 30.08 in 10.0 mi NW 13.8 mph 24.2 mph N/A   Partly Cloudy
12:35 PM 51.8 °F - 28.4 °F 41% 30.08 in 10.0 mi NW 13.8 mph 21.9 mph N/A   Partly Cloudy
12:55 PM 51.8 °F - 28.4 °F 41% 30.08 in 10.0 mi NW 17.3 mph 24.2 mph N/A   Clear
1:35 PM 53.6 °F - 28.4 °F 38% 30.08 in 10.0 mi NW 15.0 mph 19.6 mph N/A   Partly Cloudy
1:55 PM 53.6 °F - 30.2 °F 41% 30.09 in 10.0 mi NW 12.7 mph 21.9 mph N/A   Scattered Clouds
2:15 PM 55.4 °F - 30.2 °F 38% 30.07 in 10.0 mi NW 17.3 mph 21.9 mph N/A   Mostly Cloudy
2:35 PM 53.6 °F - 32.0 °F 44% 30.08 in 10.0 mi NW 17.3 mph 25.3 mph N/A   Mostly Cloudy
2:55 PM 51.8 °F - 30.2 °F 44% 30.09 in 10.0 mi NW 12.7 mph 20.7 mph N/A   Mostly Cloudy
3:15 PM 53.6 °F - 28.4 °F 38% 30.08 in 10.0 mi WNW 17.3 mph 23.0 mph N/A   Partly Cloudy
3:35 PM 53.6 °F - 30.2 °F 41% 30.08 in 10.0 mi NW 13.8 mph - N/A   Mostly Cloudy
3:55 PM 53.6 °F - 28.4 °F 38% 30.09 in 10.0 mi NNW 13.8 mph 21.9 mph N/A   Mostly Cloudy
4:15 PM 51.8 °F - 28.4 °F 41% 30.10 in 10.0 mi NNW 13.8 mph 19.6 mph N/A   Overcast
4:35 PM 53.6 °F - 28.4 °F 38% 30.10 in 10.0 mi NNW 13.8 mph 23.0 mph N/A   Overcast
5:15 PM 51.8 °F - 30.2 °F 44% 30.11 in 10.0 mi North 9.2 mph - N/A   Overcast
5:35 PM 51.8 °F - 30.2 °F 44% 30.11 in 10.0 mi North 10.4 mph 17.3 mph N/A   Overcast
5:55 PM 51.8 °F - 30.2 °F 44% 30.11 in 10.0 mi NW 8.1 mph 18.4 mph N/A   Mostly Cloudy
6:15 PM 51.8 °F - 28.4 °F 41% 30.12 in 10.0 mi NNW 11.5 mph 18.4 mph N/A   Mostly Cloudy
6:35 PM 50.0 °F - 26.6 °F 40% 30.12 in 10.0 mi NNW 5.8 mph 20.7 mph N/A   Mostly Cloudy
6:55 PM 48.2 °F - 28.4 °F 46% 30.13 in 10.0 mi NW 10.4 mph 16.1 mph N/A   Mostly Cloudy
7:15 PM 48.2 °F - 28.4 °F 46% 30.13 in 10.0 mi NNW 5.8 mph - N/A   Overcast
7:35 PM 48.2 °F - 28.4 °F 46% 30.13 in 10.0 mi NW 10.4 mph - N/A   Partly Cloudy
7:55 PM 48.2 °F - 30.2 °F 50% 30.14 in 10.0 mi NNW 5.8 mph - N/A   Clear
8:15 PM 46.4 °F 44.3 °F 30.2 °F 53% 30.15 in 10.0 mi NW 4.6 mph - N/A   Clear
8:35 PM 44.6 °F 43.1 °F 30.2 °F 57% 30.15 in 10.0 mi NW 3.5 mph - N/A   Clear
8:55 PM 44.6 °F 40.2 °F 30.2 °F 57% 30.16 in 10.0 mi NW 8.1 mph - N/A   Clear
9:15 PM 42.8 °F 39.3 °F 30.2 °F 61% 30.17 in 10.0 mi NW 5.8 mph - N/A   Clear
9:35 PM 42.8 °F 38.6 °F 30.2 °F 61% 30.18 in 10.0 mi WNW 6.9 mph - N/A   Clear
10:15 PM 39.2 °F 34.2 °F 30.2 °F 70% 30.17 in 10.0 mi NW 6.9 mph - N/A   Clear
10:35 PM 39.2 °F 35.0 °F 30.2 °F 70% 30.17 in 10.0 mi WNW 5.8 mph - N/A   Clear
10:55 PM 39.2 °F 35.0 °F 30.2 °F 70% 30.16 in 10.0 mi WNW 5.8 mph - N/A   Clear
11:15 PM 37.4 °F 32.8 °F 30.2 °F 75% 30.17 in 10.0 mi NW 5.8 mph - N/A   Clear
11:35 PM 37.4 °F 32.8 °F 30.2 °F 75% 30.17 in 10.0 mi NW 5.8 mph - N/A   Clear
11:55 PM 37.4 °F 32.8 °F 30.2 °F 75% 30.18 in 10.0 mi WNW 5.8 mph - N/A   Clear